Time;durP1;ratioP1;P1;durP2;ratioP2;P2;SDS_P1;SDS_P2;PMS_P1;PMS_P2;Temp;Humidity;BMP_temperature;BMP_pressure;BME280_temperature;BME280_humidity;BME280_pressure;Samples;Min_cycle;Max_cycle;Signal;HPM_P1;HPM_P2
2022/04/28 00:00:24;;;;;;;8.90;3.60;;;9.70;99.90;;;;;;5097089;28;20399;-63
2022/04/28 00:02:51;;;;;;;9.27;3.83;;;9.80;99.90;;;;;;5095985;28;20066;-66
2022/04/28 00:05:17;;;;;;;11.18;3.65;;;9.70;99.90;;;;;;5097309;28;20035;-65
2022/04/28 00:07:43;;;;;;;9.98;3.70;;;9.70;99.90;;;;;;5097158;28;20032;-65
2022/04/28 00:10:10;;;;;;;7.20;3.63;;;9.70;99.90;;;;;;5097161;28;20411;-65
2022/04/28 00:12:37;;;;;;;8.30;3.33;;;9.50;99.90;;;;;;5096388;28;20331;-65
2022/04/28 00:15:03;;;;;;;11.10;4.03;;;9.60;99.90;;;;;;5079654;28;20024;-65
2022/04/28 00:17:29;;;;;;;6.88;3.53;;;9.50;99.90;;;;;;5096994;28;20051;-65
2022/04/28 00:19:55;;;;;;;10.07;3.70;;;9.50;99.90;;;;;;5096632;28;20028;-66
2022/04/28 00:22:23;;;;;;;7.35;3.67;;;9.40;99.90;;;;;;5097171;28;20024;-65
2022/04/28 00:24:49;;;;;;;7.32;3.90;;;9.40;99.90;;;;;;5096613;28;20085;-67
2022/04/28 00:27:15;;;;;;;8.05;3.53;;;9.30;99.90;;;;;;5096916;28;20024;-65
2022/04/28 00:29:41;;;;;;;7.72;3.67;;;9.30;99.90;;;;;;5096146;28;20115;-65
2022/04/28 00:32:07;;;;;;;6.88;3.50;;;9.40;99.90;;;;;;5096913;28;20179;-65
2022/04/28 00:34:33;;;;;;;8.65;3.92;;;9.30;99.90;;;;;;5096162;28;20039;-66
2022/04/28 00:36:58;;;;;;;11.85;3.97;;;9.30;99.90;;;;;;5096915;28;20050;-66
2022/04/28 00:39:25;;;;;;;8.05;3.55;;;9.30;99.90;;;;;;5095977;28;20035;-66
2022/04/28 00:41:51;;;;;;;8.93;3.63;;;9.20;99.90;;;;;;5096194;28;20036;-66
2022/04/28 00:44:17;;;;;;;7.90;3.95;;;9.20;99.90;;;;;;5097061;28;20044;-66
2022/04/28 00:46:43;;;;;;;10.75;3.83;;;9.20;99.90;;;;;;5096797;28;20136;-64
2022/04/28 00:51:55;;;;;;;10.80;3.95;;;9.30;99.90;;;;;;5095947;28;20036;-65
2022/04/28 00:54:22;;;;;;;7.50;3.58;;;9.40;99.90;;;;;;5096076;28;20127;-65
2022/04/28 00:56:48;;;;;;;7.05;3.75;;;9.30;99.90;;;;;;5096887;28;20028;-65
2022/04/28 00:59:14;;;;;;;8.40;4.20;;;9.20;99.90;;;;;;5096021;28;20085;-65
2022/04/28 01:01:40;;;;;;;9.30;3.60;;;9.10;99.90;;;;;;5096612;28;20077;-65
2022/04/28 01:04:06;;;;;;;7.13;3.70;;;9.00;99.90;;;;;;5095771;28;20040;-64
2022/04/28 01:06:34;;;;;;;6.97;3.80;;;9.10;99.90;;;;;;5096601;28;20345;-64
2022/04/28 01:09:00;;;;;;;9.30;4.45;;;9.10;99.90;;;;;;5095794;28;20020;-65
2022/04/28 01:11:27;;;;;;;8.63;4.35;;;9.00;99.90;;;;;;5096253;28;20072;-65
2022/04/28 01:14:04;;;;;;;6.22;3.60;;;9.00;99.90;;;;;;5099272;28;20020;-65
2022/04/28 01:16:35;;;;;;;10.50;4.03;;;8.90;99.90;;;;;;5099641;28;20020;-65
2022/04/28 01:19:01;;;;;;;17.50;4.55;;;8.90;99.90;;;;;;5100259;28;20024;-65
2022/04/28 01:21:27;;;;;;;11.35;4.07;;;8.90;99.90;;;;;;5099549;28;20024;-65
2022/04/28 01:24:00;;;;;;;8.98;4.50;;;8.90;99.90;;;;;;5099940;28;20331;-65
2022/04/28 01:26:28;;;;;;;7.10;4.20;;;8.90;99.90;;;;;;5099969;28;20036;-65
2022/04/28 01:28:54;;;;;;;11.25;4.63;;;8.80;99.90;;;;;;5099919;28;20016;-65
2022/04/28 01:31:19;;;;;;;8.32;4.10;;;8.80;99.90;;;;;;5099843;28;20419;-65
2022/04/28 01:33:49;;;;;;;7.50;4.25;;;8.80;99.90;;;;;;5100220;28;20077;-64
2022/04/28 01:36:18;;;;;;;9.60;4.40;;;8.80;99.90;;;;;;5082519;28;20038;-66
2022/04/28 01:38:45;;;;;;;8.40;3.75;;;8.80;99.90;;;;;;5099258;28;20058;-66
2022/04/28 01:41:11;;;;;;;9.90;4.32;;;8.70;99.90;;;;;;5099693;28;20115;-65
2022/04/28 01:43:37;;;;;;;7.55;4.40;;;8.70;99.90;;;;;;5098892;28;20342;-65
2022/04/28 01:46:03;;;;;;;8.38;4.18;;;8.70;99.90;;;;;;5099427;28;20090;-65
2022/04/28 01:49:01;;;;;;;12.88;4.63;;;8.60;99.90;;;;;;5055054;28;20032;-65
2022/04/28 01:57:39;;;;;;;8.00;4.45;;;8.60;99.90;;;;;;5090246;28;20044;-65
2022/04/28 02:00:10;;;;;;;10.98;4.45;;;8.50;99.90;;;;;;5098597;28;20039;-65
2022/04/28 02:02:49;;;;;;;6.72;4.40;;;8.40;99.90;;;;;;5098574;28;20040;-66
2022/04/28 02:05:15;;;;;;;11.90;4.55;;;8.40;99.90;;;;;;5099158;28;20322;-66
2022/04/28 02:07:42;;;;;;;9.80;4.53;;;8.40;99.90;;;;;;5098365;28;20035;-66
2022/04/28 02:10:08;;;;;;;8.77;4.90;;;8.40;99.90;;;;;;5098521;28;20032;-66
2022/04/28 02:12:35;;;;;;;10.27;4.80;;;8.40;99.90;;;;;;5098664;28;20115;-65
2022/04/28 02:15:20;;;;;;;8.13;4.13;;;8.50;99.90;;;;;;5099652;28;20442;-64
2022/04/28 02:18:15;;;;;;;12.65;4.68;;;8.40;99.90;;;;;;5080768;28;20082;-65
2022/04/28 02:20:45;;;;;;;7.50;4.35;;;8.40;99.90;;;;;;5099424;28;20434;-63
2022/04/28 02:23:11;;;;;;;11.95;4.80;;;8.30;99.90;;;;;;5098883;28;20081;-64
2022/04/28 02:25:38;;;;;;;14.40;5.07;;;8.40;99.90;;;;;;5098254;28;20039;-66
2022/04/28 02:28:07;;;;;;;11.07;5.47;;;8.30;99.90;;;;;;5099075;28;20031;-66
2022/04/28 02:30:34;;;;;;;8.65;4.82;;;8.30;99.90;;;;;;5081612;28;20047;-66
2022/04/28 02:33:09;;;;;;;10.10;4.80;;;8.20;99.90;;;;;;5098475;28;20035;-65
2022/04/28 02:35:52;;;;;;;12.23;5.25;;;8.20;99.90;;;;;;5084631;28;20024;-66
2022/04/28 02:38:17;;;;;;;10.30;4.80;;;8.10;99.90;;;;;;5097878;28;20028;-66
2022/04/28 02:40:45;;;;;;;11.07;4.82;;;8.10;99.90;;;;;;5081264;28;20047;-65
2022/04/28 02:43:11;;;;;;;8.48;4.57;;;8.10;99.90;;;;;;5098445;28;20028;-69
2022/04/28 02:45:37;;;;;;;9.20;4.88;;;8.10;99.90;;;;;;5098418;28;20058;-66
2022/04/28 02:48:04;;;;;;;10.57;5.03;;;8.10;99.90;;;;;;5097615;28;20395;-65
2022/04/28 02:50:30;;;;;;;9.57;4.80;;;8.10;99.90;;;;;;5097714;28;20036;-65
2022/04/28 02:52:56;;;;;;;11.57;4.57;;;8.10;99.90;;;;;;5097487;28;20070;-65
2022/04/28 02:55:22;;;;;;;7.45;4.60;;;8.00;99.90;;;;;;5097416;28;20028;-65
2022/04/28 02:57:48;;;;;;;9.10;4.65;;;8.10;99.90;;;;;;5097480;28;20036;-65
2022/04/28 03:00:15;;;;;;;9.38;5.35;;;8.10;99.90;;;;;;5098179;28;20039;-65
2022/04/28 03:03:03;;;;;;;7.85;4.78;;;8.10;99.90;;;;;;5097701;28;20127;-66
2022/04/28 03:05:29;;;;;;;8.48;5.07;;;8.10;99.90;;;;;;5097222;28;20073;-65
2022/04/28 03:10:53;;;;;;;10.27;5.10;;;8.00;99.90;;;;;;5097932;28;20039;-65
2022/04/28 03:13:22;;;;;;;;;;;8.00;99.90;;;;;;5097900;28;20042;-65
2022/04/28 03:15:52;;;;;;;8.45;5.20;;;7.90;99.90;;;;;;5097160;28;19978;-65
2022/04/28 03:18:23;;;;;;;7.50;4.30;;;7.90;99.90;;;;;;5097021;28;20354;-65
2022/04/28 03:20:48;;;;;;;10.57;5.53;;;7.90;99.90;;;;;;5097044;28;20028;-65
2022/04/28 03:23:14;;;;;;;9.23;5.43;;;7.90;99.90;;;;;;5097726;28;20028;-65
2022/04/28 03:25:41;;;;;;;11.05;5.22;;;7.90;99.90;;;;;;5096802;28;20028;-65
2022/04/28 03:28:08;;;;;;;12.02;5.47;;;8.00;99.90;;;;;;5096911;28;20047;-65
2022/04/28 03:30:35;;;;;;;10.32;5.35;;;8.00;99.90;;;;;;5096835;28;20040;-66
2022/04/28 03:33:08;;;;;;;8.30;5.05;;;8.00;99.90;;;;;;5097164;28;20028;-66
2022/04/28 03:35:35;;;;;;;9.55;5.38;;;8.00;99.90;;;;;;5096210;28;20059;-65
2022/04/28 03:38:01;;;;;;;12.73;5.60;;;8.00;99.90;;;;;;5096608;28;20113;-66
2022/04/28 03:40:29;;;;;;;13.43;5.72;;;7.90;99.90;;;;;;5097108;28;20043;-65
2022/04/28 03:42:57;;;;;;;9.38;5.82;;;7.90;99.90;;;;;;5096760;28;20035;-66
2022/04/28 03:45:25;;;;;;;9.93;5.65;;;7.80;99.90;;;;;;5096435;28;20067;-66
2022/04/28 03:47:51;;;;;;;11.18;5.85;;;7.70;99.90;;;;;;5080328;28;20036;-65
2022/04/28 03:50:18;;;;;;;12.90;5.60;;;7.70;99.90;;;;;;5096586;28;20047;-66
2022/04/28 03:52:43;;;;;;;15.90;5.90;;;7.80;99.90;;;;;;5096437;28;20383;-65
2022/04/28 03:55:10;;;;;;;9.48;5.40;;;7.80;99.90;;;;;;5096585;28;20091;-66
2022/04/28 03:57:37;;;;;;;11.48;5.40;;;7.70;99.90;;;;;;5096756;28;20093;-66
2022/04/28 04:00:06;;;;;;;8.65;5.45;;;7.80;99.90;;;;;;5096422;28;20032;-65
2022/04/28 04:02:32;;;;;;;17.13;6.18;;;7.80;99.90;;;;;;5097179;28;20028;-65
2022/04/28 04:05:00;;;;;;;10.52;5.68;;;7.80;99.90;;;;;;5096322;28;20043;-66
2022/04/28 04:07:31;;;;;;;11.93;6.22;;;7.90;99.90;;;;;;5096327;28;20032;-66
2022/04/28 04:10:16;;;;;;;13.60;5.90;;;8.00;99.90;;;;;;5096590;28;20048;-65
2022/04/28 04:12:47;;;;;;;10.27;5.88;;;7.90;99.90;;;;;;5096239;28;20032;-65
2022/04/28 04:15:13;;;;;;;12.55;6.57;;;8.00;99.90;;;;;;5097489;28;20055;-65
2022/04/28 04:18:03;;;;;;;12.40;6.53;;;8.00;99.90;;;;;;5096367;28;20051;-65
2022/04/28 04:20:55;;;;;;;11.30;6.43;;;7.80;99.90;;;;;;5094812;28;20059;-65
2022/04/28 04:23:21;;;;;;;10.75;5.95;;;7.80;99.90;;;;;;5096951;28;20043;-66
2022/04/28 04:25:47;;;;;;;11.48;6.35;;;7.80;99.90;;;;;;5079250;28;20055;-65
2022/04/28 04:28:20;;;;;;;10.07;5.93;;;7.70;99.90;;;;;;5096174;28;20292;-65
2022/04/28 04:34:05;;;;;;;12.40;5.93;;;7.60;99.90;;;;;;5095850;28;20150;-65
2022/04/28 04:36:31;;;;;;;12.23;6.65;;;7.50;99.90;;;;;;5095888;28;20028;-65
2022/04/28 04:38:57;;;;;;;15.27;6.18;;;7.50;99.90;;;;;;5095929;28;20040;-65
2022/04/28 04:41:24;;;;;;;15.95;6.55;;;7.60;99.90;;;;;;5095942;28;20040;-65
2022/04/28 04:43:50;;;;;;;12.32;6.45;;;7.80;99.90;;;;;;5079249;28;20280;-65
2022/04/28 04:46:16;;;;;;;12.25;6.50;;;7.80;99.90;;;;;;5096642;28;20066;-66
2022/04/28 04:48:42;;;;;;;11.57;6.47;;;7.80;99.90;;;;;;5100058;28;20039;-66
2022/04/28 04:51:26;;;;;;;12.15;6.70;;;7.80;99.90;;;;;;5100711;28;20078;-65
2022/04/28 04:54:04;;;;;;;12.38;6.65;;;7.80;99.90;;;;;;5100154;28;20132;-65
2022/04/28 04:56:30;;;;;;;13.32;6.93;;;7.90;99.90;;;;;;5099968;28;20059;-66
2022/04/28 04:58:56;;;;;;;14.82;6.82;;;7.90;99.90;;;;;;5099876;28;20116;-66
2022/04/28 05:01:23;;;;;;;10.55;6.80;;;7.90;99.90;;;;;;5099646;28;20024;-65
2022/04/28 05:04:07;;;;;;;10.35;7.00;;;8.00;99.90;;;;;;5100817;28;20320;-65
2022/04/28 05:06:53;;;;;;;12.63;6.50;;;7.90;99.90;;;;;;5100026;28;20109;-65
2022/04/28 05:09:27;;;;;;;14.20;7.63;;;8.00;99.90;;;;;;5100306;28;20036;-65
2022/04/28 05:11:54;;;;;;;11.45;6.63;;;8.10;99.90;;;;;;5099435;28;20075;-65
2022/04/28 05:14:46;;;;;;;11.93;7.05;;;8.10;99.90;;;;;;5100309;28;20028;-66
2022/04/28 05:17:16;;;;;;;12.10;7.05;;;8.10;99.90;;;;;;5099278;28;20028;-66
2022/04/28 05:19:52;;;;;;;15.45;7.30;;;8.20;99.90;;;;;;5084260;28;20036;-66
2022/04/28 05:22:36;;;;;;;12.23;6.88;;;8.20;99.90;;;;;;5100070;28;20100;-66
2022/04/28 05:25:26;;;;;;;15.60;6.68;;;8.30;99.90;;;;;;5093655;28;20032;-66
2022/04/28 05:28:10;;;;;;;12.80;7.63;;;8.30;99.90;;;;;;5100083;28;20093;-66
2022/04/28 05:30:55;;;;;;;9.65;6.90;;;8.50;99.90;;;;;;5100065;28;20438;-65
2022/04/28 05:33:34;;;;;;;15.85;7.43;;;8.50;99.90;;;;;;5098877;28;20056;-65
2022/04/28 05:36:33;;;;;;;15.85;7.90;;;8.50;99.90;;;;;;5092248;28;20036;-65
2022/04/28 05:39:00;;;;;;;15.00;8.02;;;8.60;99.90;;;;;;5082239;28;20154;-65
2022/04/28 05:41:26;;;;;;;11.82;7.93;;;8.70;99.90;;;;;;5098776;28;20042;-66
2022/04/28 05:46:40;;;;;;;14.60;7.70;;;8.90;99.90;;;;;;5099533;28;20082;-66
2022/04/28 05:49:06;;;;;;;14.40;7.53;;;9.00;99.90;;;;;;5099627;28;20028;-65
2022/04/28 05:51:32;;;;;;;14.32;7.88;;;9.00;99.90;;;;;;5098530;28;20101;-65
2022/04/28 05:53:59;;;;;;;13.93;7.55;;;9.10;99.90;;;;;;5082015;28;20039;-65
2022/04/28 05:56:26;;;;;;;15.02;8.00;;;9.10;99.90;;;;;;5098570;28;20031;-64
2022/04/28 05:58:56;;;;;;;12.80;7.13;;;9.20;99.90;;;;;;5097831;28;20028;-65
2022/04/28 06:01:41;;;;;;;16.60;8.15;;;9.20;99.90;;;;;;5099945;28;20070;-66
2022/04/28 06:04:10;;;;;;;13.90;7.07;;;9.30;99.90;;;;;;5098505;28;20033;-65
2022/04/28 06:06:37;;;;;;;12.82;7.78;;;9.40;99.90;;;;;;5098781;28;20055;-65
2022/04/28 06:09:11;;;;;;;12.67;7.90;;;9.50;99.90;;;;;;5098328;28;20037;-66
2022/04/28 06:11:37;;;;;;;15.25;7.22;;;9.50;99.90;;;;;;5098463;28;20021;-66
2022/04/28 06:14:03;;;;;;;12.55;6.75;;;9.60;99.90;;;;;;5099365;28;20035;-66
2022/04/28 06:16:52;;;;;;;12.45;7.15;;;9.80;99.90;;;;;;5096188;28;20028;-67
2022/04/28 06:19:23;;;;;;;14.50;7.38;;;9.80;99.90;;;;;;5098169;28;20059;-67
2022/04/28 06:22:10;;;;;;;13.07;6.75;;;9.90;99.90;;;;;;5091008;28;20158;-66
2022/04/28 06:24:42;;;;;;;14.88;6.70;;;10.00;99.90;;;;;;5098731;28;20043;-66
2022/04/28 06:27:10;;;;;;;12.82;7.03;;;10.00;99.90;;;;;;5098066;28;20036;-64
2022/04/28 06:29:38;;;;;;;11.65;7.10;;;10.80;99.90;;;;;;5097941;28;20039;-64
2022/04/28 06:32:07;;;;;;;15.20;6.75;;;10.80;99.90;;;;;;5097855;28;20058;-65
2022/04/28 06:34:49;;;;;;;16.48;7.20;;;10.70;99.90;;;;;;5099152;28;20125;-65
2022/04/28 06:37:16;;;;;;;12.25;6.68;;;10.70;99.90;;;;;;5097763;28;20040;-64
2022/04/28 06:39:46;;;;;;;12.85;6.75;;;10.70;99.90;;;;;;5097623;28;20042;-65
2022/04/28 06:42:12;;;;;;;13.38;6.47;;;10.80;99.90;;;;;;5097704;28;20032;-66
2022/04/28 06:45:04;;;;;;;16.63;7.35;;;10.90;99.90;;;;;;5098038;28;20127;-66
2022/04/28 06:47:49;;;;;;;13.82;6.65;;;11.00;99.90;;;;;;5098323;28;20050;-66
2022/04/28 06:50:33;;;;;;;12.70;6.65;;;11.10;99.90;;;;;;5098655;28;20055;-66
2022/04/28 06:53:17;;;;;;;11.80;7.22;;;11.20;99.90;;;;;;5097700;28;20055;-65
2022/04/28 06:55:48;;;;;;;11.93;6.88;;;11.30;99.90;;;;;;5097471;28;20036;-66
2022/04/28 06:58:15;;;;;;;12.88;5.88;;;11.20;99.90;;;;;;5097347;28;20024;-65
2022/04/28 07:00:43;;;;;;;15.45;7.20;;;11.30;99.90;;;;;;5097194;28;20028;-65
2022/04/28 07:03:09;;;;;;;11.75;7.63;;;11.40;99.90;;;;;;5098799;28;20043;-66
2022/04/28 07:05:35;;;;;;;13.82;7.28;;;11.30;99.90;;;;;;5097275;28;20442;-64
2022/04/28 07:08:04;;;;;;;12.43;6.90;;;11.30;99.90;;;;;;5097979;28;20043;-64
2022/04/28 07:10:34;;;;;;;11.35;7.00;;;11.30;99.90;;;;;;5098341;28;20060;-65
2022/04/28 07:12:59;;;;;;;13.85;7.03;;;11.50;99.90;;;;;;5096978;28;20040;-65
2022/04/28 07:15:44;;;;;;;12.43;7.50;;;11.60;99.90;;;;;;5098259;28;20035;-65
2022/04/28 07:18:39;;;;;;;13.88;7.60;;;11.80;99.90;;;;;;5084487;28;20032;-66
2022/04/28 07:21:06;;;;;;;15.18;7.55;;;11.90;99.90;;;;;;5097109;28;20368;-64
2022/04/28 07:23:32;;;;;;;13.60;7.43;;;11.70;99.90;;;;;;5080330;28;20031;-65
2022/04/28 07:25:58;;;;;;;14.63;8.20;;;11.80;99.90;;;;;;5097773;28;20039;-66
2022/04/28 07:28:24;;;;;;;12.95;6.78;;;11.80;99.90;;;;;;5096975;28;20032;-65
2022/04/28 07:31:03;;;;;;;11.73;7.45;;;11.90;99.90;;;;;;5097481;28;20102;-65
2022/04/28 07:33:47;;;;;;;14.15;7.53;;;12.20;99.90;;;;;;5098067;28;20039;-66
2022/04/28 07:36:32;;;;;;;11.68;7.55;;;12.30;99.90;;;;;;5097826;28;20047;-66
2022/04/28 07:39:16;;;;;;;17.63;7.72;;;12.40;99.90;;;;;;5097886;28;20047;-66
2022/04/28 07:42:04;;;;;;;13.95;7.90;;;12.30;99.90;;;;;;5097526;28;20048;-66
2022/04/28 07:44:35;;;;;;;14.70;7.55;;;12.40;99.90;;;;;;5080377;28;20411;-63
2022/04/28 07:47:03;;;;;;;15.30;7.53;;;12.50;99.90;;;;;;5096758;28;20055;-65
2022/04/28 07:49:32;;;;;;;13.70;7.30;;;12.60;99.90;;;;;;5096764;28;20173;-65
2022/04/28 07:51:59;;;;;;;13.40;7.57;;;12.80;99.90;;;;;;5096464;28;20129;-65
2022/04/28 07:54:25;;;;;;;15.57;7.63;;;13.00;99.90;;;;;;5096530;28;20362;-65
2022/04/28 07:56:51;;;;;;;11.73;7.65;;;13.10;99.90;;;;;;5096436;28;20372;-65
2022/04/28 07:59:17;;;;;;;8.23;6.80;;;13.00;99.90;;;;;;5096583;28;20024;-64
2022/04/28 08:01:51;;;;;;;14.20;7.05;;;13.00;99.90;;;;;;5080789;28;20101;-64
2022/04/28 08:04:17;;;;;;;11.93;6.95;;;13.10;99.90;;;;;;5096333;28;20329;-65
2022/04/28 08:06:48;;;;;;;11.63;6.50;;;13.10;99.90;;;;;;5096494;28;20392;-66
2022/04/28 08:09:14;;;;;;;11.45;7.13;;;13.30;99.90;;;;;;5096343;28;20146;-65
2022/04/28 08:11:42;;;;;;;13.50;7.28;;;13.20;99.90;;;;;;5096179;28;20055;-64
2022/04/28 08:14:07;;;;;;;13.70;7.10;;;13.20;99.90;;;;;;5096380;28;20360;-65
2022/04/28 08:16:33;;;;;;;12.30;6.90;;;13.10;99.90;;;;;;5097515;28;20093;-64
2022/04/28 08:19:00;;;;;;;13.13;7.25;;;13.10;99.90;;;;;;5097113;28;20028;-65
2022/04/28 08:21:40;;;;;;;10.50;6.82;;;13.40;99.90;;;;;;5096236;28;20052;-65
2022/04/28 08:24:06;;;;;;;9.45;6.40;;;13.50;99.90;;;;;;5083462;28;20032;-65
2022/04/28 08:26:32;;;;;;;11.77;7.00;;;13.60;99.90;;;;;;5100361;28;20119;-65
2022/04/28 08:29:00;;;;;;;11.85;6.93;;;13.80;99.90;;;;;;5083707;28;20391;-65
2022/04/28 08:31:28;;;;;;;10.73;6.40;;;13.90;99.90;;;;;;5100202;28;20040;-66
2022/04/28 08:33:56;;;;;;;10.88;6.47;;;14.00;99.90;;;;;;5100031;28;20028;-65
2022/04/28 08:36:27;;;;;;;12.38;6.97;;;13.90;99.90;;;;;;5100354;28;20016;-66
2022/04/28 08:38:57;;;;;;;11.35;7.10;;;13.90;99.90;;;;;;5083880;28;20039;-65
2022/04/28 08:41:34;;;;;;;20.10;7.63;;;14.00;99.90;;;;;;5100250;28;20059;-65
2022/04/28 08:44:30;;;;;;;13.68;7.43;;;14.10;99.90;;;;;;5081693;28;20036;-66
2022/04/28 08:47:16;;;;;;;13.40;7.38;;;14.20;99.90;;;;;;5100526;28;20053;-67
2022/04/28 08:49:50;;;;;;;10.98;7.55;;;14.30;99.90;;;;;;5084287;28;20386;-67
2022/04/28 08:52:27;;;;;;;10.10;7.18;;;14.50;99.90;;;;;;5084521;28;20043;-65
2022/04/28 08:55:02;;;;;;;12.18;7.43;;;14.60;99.90;;;;;;5100982;28;20302;-66
2022/04/28 08:57:31;;;;;;;11.25;7.18;;;14.70;99.90;;;;;;5099924;28;20020;-65
2022/04/28 08:59:57;;;;;;;14.80;8.07;;;14.70;99.90;;;;;;5099770;28;20393;-65
2022/04/28 09:02:29;;;;;;;13.55;7.10;;;14.70;99.90;;;;;;5082957;28;20042;-65
2022/04/28 09:05:10;;;;;;;10.63;7.35;;;14.90;99.90;;;;;;5099671;28;20326;-64
2022/04/28 09:07:55;;;;;;;10.45;6.97;;;15.00;99.90;;;;;;5100006;28;20047;-65
2022/04/28 09:10:40;;;;;;;14.25;8.35;;;15.20;99.90;;;;;;5100078;28;20217;-65
2022/04/28 09:16:18;;;;;;;12.80;7.07;;;15.20;99.90;;;;;;5099427;28;20029;-65
2022/04/28 09:18:46;;;;;;;13.45;7.75;;;15.00;99.90;;;;;;5082641;28;20036;-65
2022/04/28 09:21:11;;;;;;;10.70;7.10;;;15.20;99.90;;;;;;5065829;28;20111;-65
2022/04/28 09:23:38;;;;;;;12.75;7.45;;;15.40;99.90;;;;;;5082385;28;20035;-65
2022/04/28 09:26:05;;;;;;;11.90;7.28;;;15.40;99.90;;;;;;5099418;28;20039;-64
2022/04/28 09:28:31;;;;;;;11.80;7.85;;;15.50;99.90;;;;;;5099914;28;20089;-65
2022/04/28 09:30:58;;;;;;;11.10;7.35;;;15.80;99.90;;;;;;5099102;28;20032;-65
2022/04/28 09:33:44;;;;;;;11.85;7.18;;;16.00;99.90;;;;;;5099185;28;20059;-64
2022/04/28 09:36:10;;;;;;;12.07;7.28;;;15.80;99.90;;;;;;5099354;28;20044;-65
2022/04/28 09:39:04;;;;;;;17.73;8.27;;;15.70;99.90;;;;;;5084035;28;20150;-65
2022/04/28 09:44:24;;;;;;;14.18;8.15;;;15.60;99.90;;;;;;5098887;28;20043;-64
2022/04/28 09:46:56;;;;;;;12.13;7.60;;;15.80;99.90;;;;;;5098839;28;20059;-66
2022/04/28 09:49:23;;;;;;;14.35;7.53;;;15.80;99.90;;;;;;5098741;28;20381;-66
2022/04/28 09:52:24;;;;;;;11.30;7.72;;;16.00;99.90;;;;;;5099242;28;20427;-65
2022/04/28 09:55:10;;;;;;;11.43;7.50;;;16.10;99.90;;;;;;5099386;28;20051;-64
2022/04/28 09:58:16;;;;;;;9.52;7.95;;;16.00;99.90;;;;;;5057739;28;20114;-65
2022/04/28 10:00:42;;;;;;;10.00;7.45;;;16.30;99.90;;;;;;5040958;28;20029;-65
2022/04/28 10:03:10;;;;;;;12.68;8.07;;;16.40;99.90;;;;;;5066682;28;20048;-65
2022/04/28 10:05:39;;;;;;;10.23;8.02;;;16.60;99.90;;;;;;5082104;28;20028;-66
2022/04/28 10:08:30;;;;;;;13.18;7.90;;;16.70;99.90;;;;;;5098472;28;20082;-65
2022/04/28 10:10:57;;;;;;;11.82;8.75;;;16.70;99.90;;;;;;5099022;28;20024;-65
2022/04/28 10:13:27;;;;;;;12.10;8.30;;;16.90;99.90;;;;;;5099057;28;20026;-65
2022/04/28 10:16:00;;;;;;;12.98;8.35;;;17.00;99.90;;;;;;5099301;28;20117;-65
2022/04/28 10:18:35;;;;;;;11.30;7.80;;;17.10;99.90;;;;;;5099608;28;20024;-65
2022/04/28 10:21:05;;;;;;;11.32;7.88;;;17.30;99.90;;;;;;5098234;28;20030;-65
2022/04/28 10:32:59;;;;;;;10.27;7.47;;;18.00;99.90;;;;;;5098799;28;20346;-65
2022/04/28 10:35:50;;;;;;;16.23;8.52;;;17.90;99.90;;;;;;5097817;28;20024;-65
2022/04/28 10:38:26;;;;;;;11.90;8.55;;;18.20;99.90;;;;;;5098547;28;20028;-65
2022/04/28 10:41:05;;;;;;;13.93;9.05;;;18.20;99.90;;;;;;5097797;28;20287;-64
2022/04/28 10:43:34;;;;;;;14.70;8.65;;;18.30;99.90;;;;;;5097874;28;20039;-66
2022/04/28 10:46:04;;;;;;;11.57;8.45;;;18.60;99.90;;;;;;5097926;28;20108;-65
2022/04/28 10:48:29;;;;;;;12.45;7.63;;;18.80;99.90;;;;;;5099056;28;20111;-64
2022/04/28 10:50:59;;;;;;;13.07;7.63;;;19.40;99.90;;;;;;5080739;28;20124;-64
2022/04/28 10:53:26;;;;;;;11.45;7.28;;;20.80;99.90;;;;;;5097476;28;20043;-65
2022/04/28 10:55:52;;;;;;;11.43;8.20;;;22.00;99.40;;;;;;5098034;28;20114;-62
2022/04/28 10:58:23;;;;;;;17.70;8.10;;;22.80;96.30;;;;;;5098155;28;20040;-65
2022/04/28 11:01:00;;;;;;;12.48;8.30;;;23.00;95.00;;;;;;5098092;28;20024;-65
2022/04/28 11:03:51;;;;;;;10.07;7.57;;;22.90;93.20;;;;;;5097982;28;20052;-64
2022/04/28 11:06:24;;;;;;;11.30;8.35;;;22.70;93.80;;;;;;5097432;28;20081;-64
2022/04/28 11:08:55;;;;;;;10.25;7.13;;;23.10;93.20;;;;;;5097964;28;20032;-64
2022/04/28 11:11:25;;;;;;;7.97;7.10;;;23.50;92.50;;;;;;5097983;28;20043;-64
2022/04/28 11:13:57;;;;;;;11.35;8.30;;;24.00;91.10;;;;;;5098125;28;20447;-65
2022/04/28 11:16:25;;;;;;;9.33;7.67;;;24.20;89.20;;;;;;5097859;28;20024;-64
2022/04/28 11:18:51;;;;;;;15.43;8.98;;;24.80;89.30;;;;;;5097251;28;20288;-65
2022/04/28 11:21:19;;;;;;;10.27;8.10;;;25.70;85.20;;;;;;5097746;28;20427;-64
2022/04/28 11:23:46;;;;;;;12.38;8.50;;;25.90;80.60;;;;;;5097758;28;20044;-66
2022/04/28 11:26:37;;;;;;;14.35;8.45;;;26.70;78.60;;;;;;5089628;28;20051;-65
2022/04/28 11:29:22;;;;;;;12.10;8.35;;;27.40;77.20;;;;;;5083353;28;20118;-65
2022/04/28 11:31:53;;;;;;;11.60;8.70;;;27.10;74.00;;;;;;5097451;28;20028;-64
2022/04/28 11:34:19;;;;;;;13.52;8.95;;;26.80;73.60;;;;;;5097667;28;20097;-65
2022/04/28 11:36:45;;;;;;;12.15;7.68;;;27.10;72.30;;;;;;5097170;28;20030;-65
2022/04/28 11:39:11;;;;;;;13.43;9.43;;;28.20;72.20;;;;;;5096690;28;20030;-65
2022/04/28 11:41:40;;;;;;;13.88;8.88;;;28.50;67.90;;;;;;5097279;28;20028;-65
2022/04/28 11:44:08;;;;;;;11.20;8.85;;;28.50;66.10;;;;;;5097201;28;20066;-66
2022/04/28 11:46:36;;;;;;;10.63;8.20;;;28.30;65.60;;;;;;5097168;28;20043;-65
2022/04/28 11:49:02;;;;;;;10.70;9.10;;;28.00;67.00;;;;;;5097222;28;20032;-66
2022/04/28 11:51:32;;;;;;;11.73;7.95;;;26.50;68.20;;;;;;5097224;28;20311;-66
2022/04/28 11:53:58;;;;;;;10.95;7.55;;;27.80;68.10;;;;;;5097139;28;20131;-65
2022/04/28 11:56:29;;;;;;;11.15;8.07;;;28.80;66.50;;;;;;5096839;28;20435;-65
2022/04/28 11:59:01;;;;;;;10.30;9.05;;;29.20;60.90;;;;;;5096061;28;20035;-65
2022/04/28 12:01:29;;;;;;;;;;;29.90;59.50;;;;;;5097671;28;20299;-65
2022/04/28 12:03:56;;;;;;;8.50;6.63;;;30.10;59.10;;;;;;5097245;28;19956;-65
2022/04/28 12:06:24;;;;;;;10.80;8.85;;;30.40;59.20;;;;;;5096833;28;20039;-65
2022/04/28 12:08:52;;;;;;;13.45;7.97;;;30.70;57.80;;;;;;5097112;28;20032;-65
2022/04/28 12:14:22;;;;;;;9.93;8.70;;;31.30;55.80;;;;;;5097533;28;20115;-66
2022/04/28 12:20:10;;;;;;;9.90;7.57;;;32.50;53.20;;;;;;5096997;28;20338;-65
2022/04/28 12:22:39;;;;;;;10.73;6.85;;;33.30;51.00;;;;;;5097018;28;20384;-66
2022/04/28 12:25:06;;;;;;;19.83;16.02;;;33.50;50.10;;;;;;5096935;28;20027;-66
2022/04/28 12:27:44;;;;;;;21.52;15.75;;;32.60;50.10;;;;;;5096305;28;20103;-65
2022/04/28 12:30:13;;;;;;;19.02;14.93;;;32.90;50.10;;;;;;5096979;28;20038;-64
2022/04/28 12:32:59;;;;;;;16.98;14.38;;;33.30;49.60;;;;;;5096884;28;20028;-65
2022/04/28 12:35:35;;;;;;;12.90;10.35;;;33.10;48.30;;;;;;5097436;28;20479;-65
2022/04/28 12:38:06;;;;;;;8.30;6.47;;;32.30;49.10;;;;;;5096843;28;20036;-65
2022/04/28 12:40:41;;;;;;;10.00;8.98;;;32.80;49.10;;;;;;5096873;28;20038;-66
2022/04/28 12:43:08;;;;;;;13.43;7.93;;;33.50;47.90;;;;;;5096951;28;20067;-65
2022/04/28 12:45:51;;;;;;;11.32;7.63;;;33.70;47.50;;;;;;5079075;28;20063;-65
2022/04/28 12:48:37;;;;;;;9.70;7.32;;;34.20;47.00;;;;;;5097388;28;20047;-64
2022/04/28 12:51:17;;;;;;;13.27;10.07;;;35.20;46.40;;;;;;5096681;28;20061;-65
2022/04/28 12:53:48;;;;;;;9.52;8.52;;;35.40;44.10;;;;;;5096943;28;20280;-66
2022/04/28 12:56:17;;;;;;;14.77;11.10;;;33.80;45.50;;;;;;5096024;28;20111;-65
2022/04/28 12:58:45;;;;;;;17.00;13.98;;;33.50;45.80;;;;;;5095863;28;20048;-65
2022/04/28 13:01:14;;;;;;;18.73;12.73;;;32.70;45.90;;;;;;5095905;28;20038;-65
2022/04/28 13:03:40;;;;;;;22.35;14.68;;;33.40;46.40;;;;;;5097475;28;20048;-65
2022/04/28 13:06:08;;;;;;;21.35;13.30;;;34.30;44.40;;;;;;5096615;28;20028;-65
2022/04/28 13:08:34;;;;;;;19.90;12.93;;;34.50;44.20;;;;;;5097670;28;20448;-65
2022/04/28 13:11:01;;;;;;;20.92;12.82;;;34.60;44.20;;;;;;5100608;28;20311;-65
2022/04/28 13:13:28;;;;;;;14.57;10.30;;;34.70;43.30;;;;;;5100359;28;20092;-64
2022/04/28 13:15:54;;;;;;;12.93;9.20;;;34.90;43.40;;;;;;5099388;28;20070;-65
2022/04/28 13:18:19;;;;;;;13.38;10.10;;;34.70;43.70;;;;;;5100218;28;20043;-65
2022/04/28 13:20:46;;;;;;;10.45;8.40;;;34.50;43.50;;;;;;5100301;28;20020;-64
2022/04/28 13:23:11;;;;;;;13.20;8.82;;;35.10;43.30;;;;;;5100186;28;20100;-65
2022/04/28 13:25:38;;;;;;;13.48;10.57;;;35.70;42.50;;;;;;5100025;28;20028;-66
2022/04/28 13:28:04;;;;;;;12.57;9.38;;;35.70;41.20;;;;;;5100036;28;20035;-65
2022/04/28 13:30:29;;;;;;;13.68;9.77;;;35.50;41.80;;;;;;5100090;28;20044;-64
2022/04/28 13:32:55;;;;;;;10.80;7.95;;;35.50;41.50;;;;;;5099146;28;20376;-64
2022/04/28 13:35:21;;;;;;;10.77;9.10;;;35.60;41.70;;;;;;5099991;28;20399;-65
2022/04/28 13:37:47;;;;;;;9.95;7.50;;;35.50;41.30;;;;;;5099842;28;20085;-64
2022/04/28 13:40:13;;;;;;;12.35;9.10;;;35.60;41.80;;;;;;5098918;28;20035;-65
2022/04/28 13:42:39;;;;;;;10.50;7.85;;;35.70;40.50;;;;;;5099871;28;20119;-65